Time;durP1;ratioP1;P1;durP2;ratioP2;P2;SDS_P1;SDS_P2;PMS_P1;PMS_P2;Temp;Humidity;BMP_temperature;BMP_pressure;BME280_temperature;BME280_humidity;BME280_pressure;Samples;Min_cycle;Max_cycle;Signal;HPM_P1;HPM_P2
2021/09/04 00:00:18;;;;;;;20.60;13.00;;;;;;;24.09;46.31;101920.28;4991489;28;20025;-72
2021/09/04 00:02:44;;;;;;;20.73;12.48;;;;;;;24.07;46.63;101923.44;4991531;28;20030;-73
2021/09/04 00:05:10;;;;;;;23.33;13.65;;;;;;;24.00;46.80;101914.97;4991535;28;20082;-73
2021/09/04 00:07:35;;;;;;;24.10;14.40;;;;;;;24.06;46.42;101912.66;4991544;28;20049;-72
2021/09/04 00:10:02;;;;;;;18.58;13.70;;;;;;;24.00;46.99;101909.38;4991619;28;20054;-72
2021/09/04 00:12:28;;;;;;;20.27;14.18;;;;;;;24.07;46.99;101911.47;4991369;28;20037;-71
2021/09/04 00:14:55;;;;;;;22.02;14.30;;;;;;;24.13;46.63;101915.56;4991658;28;20049;-72
2021/09/04 00:17:20;;;;;;;20.38;13.45;;;;;;;24.17;46.63;101913.59;4991386;28;20534;-72
2021/09/04 00:19:46;;;;;;;20.50;14.85;;;;;;;24.29;46.44;101915.38;4991391;28;20030;-72
2021/09/04 00:22:12;;;;;;;18.65;12.57;;;;;;;24.21;46.40;101906.09;4991274;28;20030;-72
2021/09/04 00:24:38;;;;;;;23.33;14.75;;;;;;;24.18;46.54;101901.28;4991034;28;20416;-71
2021/09/04 00:27:06;;;;;;;26.77;15.63;;;;;;;24.18;46.88;101900.44;4991400;28;20483;-77
2021/09/04 00:29:33;;;;;;;23.13;15.38;;;;;;;24.16;46.67;101900.03;4990062;28;20113;-72
2021/09/04 00:31:59;;;;;;;30.02;16.83;;;;;;;24.16;46.97;101903.63;4991385;28;20033;-72
2021/09/04 00:34:24;;;;;;;21.80;14.50;;;;;;;24.17;46.68;101907.22;4991006;28;20026;-72
2021/09/04 00:36:50;;;;;;;22.63;14.63;;;;;;;24.32;46.52;101900.63;4991351;28;20022;-72
2021/09/04 00:39:16;;;;;;;23.17;15.02;;;;;;;24.22;46.75;101896.53;4989713;28;20432;-72
2021/09/04 00:41:42;;;;;;;20.60;14.30;;;;;;;24.19;47.07;101899.28;4991058;28;20064;-72
2021/09/04 00:44:14;;;;;;;28.33;15.82;;;;;;;24.17;46.99;101893.25;4990881;28;20030;-72
2021/09/04 00:46:39;;;;;;;23.92;13.82;;;;;;;24.25;46.90;101889.38;4989967;28;20029;-72
2021/09/04 00:49:05;;;;;;;23.15;14.63;;;;;;;24.22;47.14;101896.53;4990850;28;20035;-73
2021/09/04 00:51:31;;;;;;;20.35;14.25;;;;;;;24.24;46.95;101888.56;4990777;28;20033;-72
2021/09/04 00:53:56;;;;;;;20.30;14.30;;;;;;;24.29;46.59;101879.88;4990686;28;20037;-72
2021/09/04 00:56:22;;;;;;;27.50;16.98;;;;;;;24.28;46.73;101877.47;4990703;28;20027;-72
2021/09/04 00:58:48;;;;;;;29.80;16.40;;;;;;;24.29;46.72;101877.06;4989550;28;20037;-71
2021/09/04 01:01:13;;;;;;;28.48;16.83;;;;;;;24.30;46.97;101872.28;4990107;28;20034;-72
2021/09/04 01:03:39;;;;;;;31.20;17.45;;;;;;;24.31;46.83;101871.09;4988428;28;20069;-72
2021/09/04 01:06:05;;;;;;;28.67;17.10;;;;;;;24.35;46.81;101866.41;4990672;28;20023;-72
2021/09/04 01:08:30;;;;;;;28.05;17.60;;;;;;;24.33;46.75;101866.81;5021937;28;20029;-71
2021/09/04 01:10:56;;;;;;;26.83;17.13;;;;;;;24.38;46.81;101856.47;4991085;28;20026;-71
2021/09/04 01:13:24;;;;;;;28.25;17.08;;;;;;;24.35;46.68;101861.63;4990528;28;20104;-72
2021/09/04 01:15:50;;;;;;;20.77;14.55;;;;;;;24.33;47.02;101860.38;4990584;28;20493;-72
2021/09/04 01:18:15;;;;;;;22.92;15.35;;;;;;;24.31;46.77;101859.94;4990424;28;20092;-78
2021/09/04 01:20:42;;;;;;;27.00;15.30;;;;;;;24.35;47.00;101861.63;4989195;28;20049;-72
2021/09/04 01:23:07;;;;;;;22.23;14.77;;;;;;;24.35;46.70;101858.03;4990391;28;20054;-72
2021/09/04 01:25:34;;;;;;;22.70;15.10;;;;;;;24.35;46.53;101861.63;4990352;28;20082;-73
2021/09/04 01:28:02;;;;;;;28.67;16.40;;;;;;;24.36;46.76;101859.63;4990318;28;20042;-72
2021/09/04 01:30:29;;;;;;;21.15;14.70;;;;;;;24.35;46.61;101855.25;4990198;28;20058;-72
2021/09/04 01:32:55;;;;;;;28.77;18.42;;;;;;;24.36;46.88;101854.06;4990587;28;20033;-71
2021/09/04 01:35:24;;;;;;;30.90;19.00;;;;;;;24.36;46.87;101851.25;4996439;28;20023;-72
2021/09/04 01:37:51;;;;;;;32.90;19.83;;;;;;;24.34;46.68;101850.84;4996723;28;20033;-72
2021/09/04 01:40:17;;;;;;;31.80;19.20;;;;;;;24.39;46.80;101844.91;4996885;28;20053;-72
2021/09/04 01:42:45;;;;;;;29.58;19.15;;;;;;;24.43;46.50;101842.97;4995492;28;20391;-72
2021/09/04 01:45:12;;;;;;;34.28;18.38;;;;;;;24.39;46.68;101847.69;4996937;28;20031;-72
2021/09/04 01:47:38;;;;;;;42.47;19.67;;;;;;;24.44;46.59;101843.78;4996455;28;20512;-75
2021/09/04 01:50:09;;;;;;;28.67;18.23;;;;;;;24.47;46.89;101838.19;4996538;28;20045;-72
2021/09/04 01:52:37;;;;;;;35.10;20.27;;;;;;;24.50;46.89;101828.28;4996621;28;20034;-73
2021/09/04 01:55:04;;;;;;;31.77;19.42;;;;;;;24.47;46.93;101831.81;4996526;28;20487;-76
2021/09/04 01:57:29;;;;;;;29.48;17.48;;;;;;;24.47;47.00;101831.81;4996439;28;20022;-72
2021/09/04 01:59:55;;;;;;;27.75;17.58;;;;;;;24.43;47.00;101833.78;4996732;28;20503;-72
2021/09/04 02:02:21;;;;;;;33.78;19.30;;;;;;;24.46;47.05;101827.41;4996870;28;20542;-72
2021/09/04 02:04:47;;;;;;;33.85;21.40;;;;;;;24.51;46.64;101825.09;4996657;28;20550;-73
2021/09/04 02:07:12;;;;;;;36.08;21.02;;;;;;;24.56;46.73;101824.75;4996661;28;20493;-72
2021/09/04 02:09:38;;;;;;;30.65;19.40;;;;;;;24.57;46.74;101822.78;4996268;28;20417;-72
2021/09/04 02:12:06;;;;;;;31.23;18.98;;;;;;;24.52;46.97;101828.69;4996291;28;20027;-77
2021/09/04 02:14:32;;;;;;;32.10;18.75;;;;;;;24.43;47.13;101823.41;4996306;28;20019;-72
2021/09/04 02:16:57;;;;;;;31.98;19.85;;;;;;;24.45;47.22;101820.22;4996228;28;20029;-72
2021/09/04 02:19:23;;;;;;;33.55;19.98;;;;;;;24.47;46.97;101826.22;4996231;28;20034;-72
2021/09/04 02:21:48;;;;;;;33.17;20.52;;;;;;;24.49;46.79;101818.28;4996197;28;20591;-71
2021/09/04 02:24:14;;;;;;;37.88;20.40;;;;;;;24.46;47.39;101822.63;4994717;28;20062;-72
2021/09/04 02:26:40;;;;;;;32.05;19.45;;;;;;;24.52;47.09;101820.31;4995160;28;20096;-72
2021/09/04 02:29:05;;;;;;;31.50;19.65;;;;;;;24.53;46.77;101819.13;4996060;28;20416;-72
2021/09/04 02:31:31;;;;;;;33.28;21.42;;;;;;;24.52;46.84;101814.72;4995836;28;20058;-72
2021/09/04 02:33:56;;;;;;;40.50;20.77;;;;;;;24.53;47.10;101811.53;4996362;28;20041;-71
2021/09/04 02:36:23;;;;;;;33.22;20.23;;;;;;;24.49;47.19;101821.09;4996040;28;20038;-72
2021/09/04 02:38:49;;;;;;;34.15;19.20;;;;;;;24.54;47.10;101813.16;4995950;28;20501;-72
2021/09/04 02:41:15;;;;;;;40.85;20.63;;;;;;;24.53;47.29;101808.75;4996067;28;20033;-72
2021/09/04 02:43:41;;;;;;;33.95;18.90;;;;;;;24.54;47.16;101809.56;4995923;28;20121;-72
2021/09/04 02:46:07;;;;;;;35.25;20.90;;;;;;;24.54;47.29;101801.97;4992638;28;20045;-71
2021/09/04 02:48:33;;;;;;;40.22;22.25;;;;;;;24.53;47.04;101796.78;4993222;28;20037;-78
2021/09/04 02:50:59;;;;;;;41.85;21.33;;;;;;;24.51;47.00;101791.56;4992762;28;20027;-72
2021/09/04 02:53:25;;;;;;;38.50;21.58;;;;;;;24.53;46.97;101788.38;4992986;28;20035;-77
2021/09/04 02:55:51;;;;;;;40.50;22.15;;;;;;;24.56;47.26;101790.41;4992660;28;20114;-74
2021/09/04 02:58:16;;;;;;;36.10;20.92;;;;;;;24.49;47.09;101791.16;4992481;28;20501;-72
2021/09/04 03:00:42;;;;;;;35.83;20.98;;;;;;;24.49;47.10;101790.34;4991525;28;20131;-72
2021/09/04 03:03:08;;;;;;;38.63;20.80;;;;;;;24.49;47.51;101787.56;4992462;28;20396;-72
2021/09/04 03:05:34;;;;;;;36.22;20.80;;;;;;;24.46;47.58;101779.94;4992301;28;20026;-77
2021/09/04 03:07:59;;;;;;;41.78;22.08;;;;;;;24.48;47.64;101781.16;4992594;28;20038;-72
2021/09/04 03:10:25;;;;;;;37.95;21.30;;;;;;;24.47;47.29;101781.53;4992679;28;20366;-72
2021/09/04 03:12:51;;;;;;;36.13;21.33;;;;;;;24.49;47.24;101787.56;4992421;28;20038;-72
2021/09/04 03:15:17;;;;;;;47.13;22.85;;;;;;;24.48;47.20;101785.94;4992433;28;20030;-72
2021/09/04 03:17:44;;;;;;;43.60;22.02;;;;;;;24.48;47.58;101778.34;4992341;28;20450;-71
2021/09/04 03:20:10;;;;;;;38.47;20.38;;;;;;;24.48;47.38;101775.56;4992533;28;20045;-72
2021/09/04 03:22:36;;;;;;;36.88;21.08;;;;;;;24.64;47.24;101769.75;4992251;28;20027;-72
2021/09/04 03:25:04;;;;;;;38.28;22.77;;;;;;;24.58;47.42;101763.72;4992066;28;20538;-71
2021/09/04 03:27:30;;;;;;;40.38;22.15;;;;;;;24.57;47.54;101762.09;4992063;28;20108;-72
2021/09/04 03:29:57;;;;;;;38.20;21.33;;;;;;;24.53;47.51;101768.84;4992423;28;20062;-71
2021/09/04 03:32:23;;;;;;;44.58;22.42;;;;;;;24.56;47.47;101754.91;4992129;28;20022;-72
2021/09/04 03:34:49;;;;;;;37.50;21.83;;;;;;;24.53;47.48;101754.88;4992060;28;20111;-72
2021/09/04 03:37:15;;;;;;;39.20;21.15;;;;;;;24.45;47.38;101759.56;4990993;28;20046;-72
2021/09/04 03:39:41;;;;;;;36.60;21.73;;;;;;;24.46;47.48;101755.59;4992009;28;20073;-72
2021/09/04 03:42:06;;;;;;;38.00;23.83;;;;;;;24.46;47.64;101752.78;4992007;28;20038;-72
2021/09/04 03:44:32;;;;;;;42.35;21.92;;;;;;;24.47;47.31;101753.59;4991905;28;20022;-72
2021/09/04 03:46:58;;;;;;;44.10;23.23;;;;;;;24.44;47.22;101749.59;4990862;28;20026;-72
2021/09/04 03:49:23;;;;;;;36.28;22.30;;;;;;;24.43;47.66;101745.19;4991785;28;20034;-72
2021/09/04 03:51:49;;;;;;;40.17;23.02;;;;;;;24.40;47.37;101748.75;4991783;28;20022;-76
2021/09/04 03:54:14;;;;;;;36.10;23.13;;;;;;;24.40;47.40;101750.72;4992009;28;20041;-72
2021/09/04 03:56:40;;;;;;;36.13;21.13;;;;;;;24.41;47.78;101755.13;4991288;28;20038;-72
2021/09/04 03:59:06;;;;;;;34.85;19.48;;;;;;;24.41;47.62;101746.75;4991793;28;20036;-72
2021/09/04 04:01:31;;;;;;;38.70;22.38;;;;;;;24.39;47.78;101749.13;4991551;28;20065;-72
2021/09/04 04:03:57;;;;;;;35.67;20.52;;;;;;;24.42;47.90;101749.19;4991545;28;20026;-71
2021/09/04 04:06:23;;;;;;;36.50;21.58;;;;;;;24.39;48.02;101749.13;4991643;28;20027;-72
2021/09/04 04:08:48;;;;;;;34.72;19.92;;;;;;;24.39;47.83;101751.91;4991445;28;20081;-71
2021/09/04 04:11:14;;;;;;;37.17;22.67;;;;;;;24.46;47.69;101744.41;4991446;28;20023;-72
2021/09/04 04:13:40;;;;;;;34.72;20.63;;;;;;;24.44;47.53;101741.22;4991415;28;20019;-71
2021/09/04 04:16:05;;;;;;;37.90;21.38;;;;;;;24.45;47.50;101742.81;4991360;28;20023;-72
2021/09/04 04:18:33;;;;;;;41.17;22.42;;;;;;;24.49;47.61;101746.47;4990039;28;20034;-72
2021/09/04 04:21:00;;;;;;;40.33;22.17;;;;;;;24.45;47.70;101747.59;4991345;28;20022;-72
2021/09/04 04:23:26;;;;;;;35.90;20.83;;;;;;;24.39;47.93;101743.53;4990855;28;20025;-72
2021/09/04 04:25:52;;;;;;;35.50;20.15;;;;;;;24.35;48.18;101741.53;4991533;28;20027;-75
2021/09/04 04:28:19;;;;;;;34.42;19.92;;;;;;;24.39;48.14;101737.94;4990996;28;20500;-72
2021/09/04 04:30:44;;;;;;;35.78;21.73;;;;;;;24.38;48.06;101739.16;4991122;28;20030;-72
2021/09/04 04:33:10;;;;;;;39.85;19.88;;;;;;;24.34;48.38;101736.34;4991123;28;20426;-71
2021/09/04 04:35:36;;;;;;;28.55;16.92;;;;;;;24.31;48.03;101737.84;4991098;28;20022;-72
2021/09/04 04:38:02;;;;;;;31.33;17.08;;;;;;;24.31;47.86;101737.84;4991022;28;20048;-72
2021/09/04 04:40:27;;;;;;;37.03;19.42;;;;;;;24.28;47.95;101735.03;4989902;28;20053;-77
2021/09/04 04:42:53;;;;;;;30.15;17.35;;;;;;;24.28;47.76;101737.81;4991022;28;20033;-72
2021/09/04 04:45:19;;;;;;;33.83;18.98;;;;;;;24.24;48.16;101736.97;4991193;28;20071;-72
2021/09/04 04:47:44;;;;;;;36.92;20.77;;;;;;;24.25;47.90;101730.19;4991195;28;20427;-71
2021/09/04 04:50:11;;;;;;;37.88;20.27;;;;;;;24.27;48.02;101730.63;4990764;28;20078;-72
2021/09/04 04:52:37;;;;;;;37.08;20.42;;;;;;;24.24;48.09;101725.81;4990897;28;20058;-72
2021/09/04 04:55:03;;;;;;;39.03;21.85;;;;;;;24.17;48.16;101737.69;4990977;28;20038;-72
2021/09/04 04:57:29;;;;;;;35.72;21.63;;;;;;;24.16;48.52;101730.50;4989523;28;20030;-72
2021/09/04 04:59:55;;;;;;;37.63;20.63;;;;;;;24.14;48.12;101724.50;4990812;28;20065;-71
2021/09/04 05:02:20;;;;;;;42.97;20.27;;;;;;;24.16;48.06;101729.72;4990682;28;20030;-71
2021/09/04 05:04:46;;;;;;;41.40;21.15;;;;;;;24.21;48.22;101729.38;4990730;28;20083;-72
2021/09/04 05:07:11;;;;;;;44.20;20.83;;;;;;;24.27;48.15;101723.06;4990629;28;20050;-72
2021/09/04 05:09:37;;;;;;;39.65;21.08;;;;;;;24.33;47.85;101715.16;4989695;28;20431;-72
2021/09/04 05:12:03;;;;;;;37.90;22.75;;;;;;;24.28;47.80;101713.50;4990547;28;20041;-75
2021/09/04 05:14:28;;;;;;;38.05;22.35;;;;;;;24.26;48.01;101717.88;4990479;28;20023;-71
2021/09/04 05:16:54;;;;;;;36.03;20.13;;;;;;;24.28;48.00;101713.50;4990706;28;20511;-72
2021/09/04 05:19:19;;;;;;;39.85;21.98;;;;;;;24.25;47.79;101708.66;4990403;28;20026;-78
2021/09/04 05:21:45;;;;;;;43.20;22.48;;;;;;;24.17;47.93;101704.19;4990346;28;20034;-74
2021/09/04 05:24:11;;;;;;;40.85;21.70;;;;;;;24.26;47.82;101707.50;4990260;28;20046;-71
2021/09/04 05:26:36;;;;;;;38.30;21.05;;;;;;;24.25;48.32;101711.44;4990371;28;20031;-72
2021/09/04 05:29:02;;;;;;;39.65;21.13;;;;;;;24.24;48.13;101709.84;4990251;28;20035;-72
2021/09/04 05:31:28;;;;;;;39.47;21.45;;;;;;;24.20;48.18;101711.81;4990415;28;20034;-72
2021/09/04 05:33:53;;;;;;;37.42;20.23;;;;;;;24.17;48.13;101704.19;4990431;28;20056;-72
2021/09/04 05:36:19;;;;;;;39.00;22.42;;;;;;;24.21;48.49;101707.84;4990205;28;20480;-71
2021/09/04 05:38:44;;;;;;;38.67;21.95;;;;;;;24.24;48.21;101709.84;4990236;28;20045;-72
2021/09/04 05:41:10;;;;;;;39.97;20.90;;;;;;;24.25;48.19;101708.66;4990190;28;20065;-72
2021/09/04 05:43:36;;;;;;;39.58;20.75;;;;;;;24.23;48.30;101708.25;4990270;28;20034;-71
2021/09/04 05:46:01;;;;;;;40.38;22.67;;;;;;;24.24;48.50;101709.84;4990030;28;20022;-72
2021/09/04 05:48:27;;;;;;;38.75;21.92;;;;;;;24.23;48.67;101710.25;4990017;28;20034;-72
2021/09/04 05:50:53;;;;;;;42.00;22.65;;;;;;;24.27;48.53;101706.31;4990353;28;20366;-72
2021/09/04 05:53:18;;;;;;;39.42;21.27;;;;;;;24.23;48.46;101708.25;4988714;28;20034;-72
2021/09/04 05:55:44;;;;;;;39.78;21.17;;;;;;;24.22;48.38;101712.22;4989958;28;20026;-74
2021/09/04 05:58:10;;;;;;;39.38;21.08;;;;;;;24.26;48.32;101704.69;4989874;28;20030;-72
2021/09/04 06:00:35;;;;;;;42.30;21.13;;;;;;;24.25;48.79;101707.84;4989953;28;20034;-72
2021/09/04 06:03:01;;;;;;;43.95;22.42;;;;;;;24.26;48.52;101707.50;4989925;28;20481;-72
2021/09/04 06:05:28;;;;;;;37.25;20.13;;;;;;;24.16;48.95;101701.78;4989900;28;20026;-72
2021/09/04 06:07:54;;;;;;;30.58;18.10;;;;;;;24.33;47.97;101710.41;4990002;28;20457;-73
2021/09/04 06:10:19;;;;;;;33.33;19.10;;;;;;;24.52;47.33;101711.34;4989865;28;20031;-71
2021/09/04 06:12:45;;;;;;;32.03;19.27;;;;;;;24.46;47.76;101710.09;4989776;28;20026;-72
2021/09/04 06:15:11;;;;;;;38.63;19.83;;;;;;;24.45;47.65;101708.50;4989920;28;20033;-72
2021/09/04 06:17:36;;;;;;;40.08;21.85;;;;;;;24.47;47.39;101712.50;4989632;28;20031;-75
2021/09/04 06:20:02;;;;;;;39.80;20.40;;;;;;;24.46;47.85;101712.88;4990691;28;20041;-74
2021/09/04 06:22:28;;;;;;;37.67;21.00;;;;;;;24.53;47.34;101712.94;4993419;28;20026;-71
2021/09/04 06:24:54;;;;;;;37.35;21.00;;;;;;;24.47;47.63;101708.91;4993063;28;20396;-72
2021/09/04 06:27:19;;;;;;;36.75;20.88;;;;;;;24.38;47.96;101705.63;4993407;28;20056;-72
2021/09/04 06:29:45;;;;;;;35.65;20.25;;;;;;;24.39;48.05;101702.44;4991740;28;20062;-72
2021/09/04 06:32:10;;;;;;;45.08;24.05;;;;;;;24.35;48.14;101705.22;4992916;28;20027;-75
2021/09/04 06:34:36;;;;;;;39.35;22.67;;;;;;;24.32;48.35;101705.97;4991747;28;20072;-72
2021/09/04 06:37:02;;;;;;;40.17;21.67;;;;;;;24.22;48.11;101705.84;4992876;28;20034;-72
2021/09/04 06:39:28;;;;;;;46.17;21.08;;;;;;;24.26;48.50;101704.69;4991760;28;20037;-74
2021/09/04 06:41:54;;;;;;;48.15;24.85;;;;;;;24.23;48.65;101711.03;4992877;28;20031;-72
2021/09/04 06:44:19;;;;;;;46.88;23.25;;;;;;;24.25;48.71;101705.88;4993063;28;20026;-72
2021/09/04 06:46:45;;;;;;;42.58;20.92;;;;;;;24.35;48.71;101704.41;4992974;28;20065;-72
2021/09/04 06:49:11;;;;;;;37.20;19.77;;;;;;;24.31;48.66;101709.91;4992510;28;20087;-72
2021/09/04 06:51:36;;;;;;;39.83;19.83;;;;;;;24.41;48.92;101710.44;4992573;28;20030;-72
2021/09/04 06:54:02;;;;;;;35.85;20.45;;;;;;;24.43;48.63;101710.88;4991431;28;20113;-75
2021/09/04 06:56:27;;;;;;;30.63;17.48;;;;;;;24.48;48.72;101714.09;4992581;28;20037;-71
2021/09/04 06:58:53;;;;;;;33.47;19.40;;;;;;;24.56;48.71;101721.38;4989279;28;20501;-70
2021/09/04 07:01:19;;;;;;;33.47;17.27;;;;;;;24.61;48.68;101717.41;4990599;28;20027;-71
2021/09/04 07:03:44;;;;;;;31.45;18.45;;;;;;;24.59;48.64;101717.81;4992122;28;20033;-71
2021/09/04 07:06:10;;;;;;;31.42;17.58;;;;;;;24.74;48.70;101723.53;4992415;28;20026;-70
2021/09/04 07:08:36;;;;;;;34.63;18.83;;;;;;;24.81;48.24;101718.78;4992152;28;20293;-70
2021/09/04 07:11:02;;;;;;;33.80;19.00;;;;;;;24.85;48.49;101725.19;4992384;28;20033;-69
2021/09/04 07:13:28;;;;;;;24.50;16.65;;;;;;;24.95;47.88;101722.91;4991130;28;20400;-70
2021/09/04 07:15:54;;;;;;;29.73;19.20;;;;;;;24.90;48.27;101724.06;4991924;28;20034;-76
2021/09/04 07:18:23;;;;;;;29.67;17.17;;;;;;;24.89;48.20;101728.84;4992424;28;20027;-80
2021/09/04 07:20:49;;;;;;;38.92;17.70;;;;;;;24.88;48.71;101730.03;4991236;28;20027;-70
2021/09/04 07:23:15;;;;;;;27.95;16.23;;;;;;;24.98;48.40;101727.72;4991927;28;20030;-71
2021/09/04 07:25:40;;;;;;;27.48;16.25;;;;;;;25.01;48.09;101730.50;4991892;28;20084;-72
2021/09/04 07:28:06;;;;;;;28.17;15.82;;;;;;;24.88;48.35;101734.81;4994415;28;20037;-72
2021/09/04 07:30:35;;;;;;;25.67;16.35;;;;;;;24.91;48.25;101748.81;5009814;28;20068;-71
2021/09/04 07:33:01;;;;;;;28.00;16.75;;;;;;;24.97;48.28;101737.28;5009082;28;20503;-71
2021/09/04 07:35:26;;;;;;;25.60;16.00;;;;;;;24.96;48.55;101744.06;5011452;28;20030;-74
2021/09/04 07:37:52;;;;;;;36.78;15.88;;;;;;;25.04;48.31;101743.75;5010541;28;20032;-81
2021/09/04 07:40:17;;;;;;;23.20;14.27;;;;;;;25.05;48.25;101736.97;5011500;28;20029;-79
2021/09/04 07:42:43;;;;;;;24.27;16.73;;;;;;;25.20;47.99;101743.47;5011409;28;20030;-80
2021/09/04 07:45:09;;;;;;;29.73;16.02;;;;;;;25.20;47.87;101743.47;5011261;28;20018;-79
2021/09/04 07:47:34;;;;;;;28.45;15.80;;;;;;;25.23;47.63;101747.47;5011260;28;20159;-84
2021/09/04 07:50:00;;;;;;;28.75;17.55;;;;;;;25.14;47.68;101747.81;5010821;28;20026;-72
2021/09/04 07:52:25;;;;;;;32.80;16.52;;;;;;;25.26;47.39;101752.31;5011249;28;20067;-73
2021/09/04 07:54:51;;;;;;;24.55;14.32;;;;;;;25.25;47.39;101754.31;4991716;28;20031;-74
2021/09/04 07:57:17;;;;;;;28.63;16.17;;;;;;;25.26;47.32;101744.72;4974250;28;20042;-73
2021/09/04 07:59:42;;;;;;;24.38;14.20;;;;;;;25.23;47.33;101748.28;4975159;28;20058;-73
2021/09/04 08:02:08;;;;;;;24.92;14.35;;;;;;;25.29;46.83;101751.53;4974800;28;20027;-72
2021/09/04 08:04:34;;;;;;;25.90;17.23;;;;;;;25.33;46.73;101753.16;4975515;28;20036;-74
2021/09/04 08:07:00;;;;;;;30.15;15.77;;;;;;;25.37;46.93;101755.97;4975135;28;20032;-72
2021/09/04 08:09:25;;;;;;;23.80;17.00;;;;;;;25.39;47.13;101762.81;4974853;28;20038;-72
2021/09/04 08:11:51;;;;;;;26.20;17.40;;;;;;;25.39;46.93;101760.00;4975169;28;20069;-73
2021/09/04 08:14:16;;;;;;;23.95;15.10;;;;;;;25.44;46.47;101756.81;4974997;28;20143;-74
2021/09/04 08:16:42;;;;;;;25.52;15.68;;;;;;;25.48;46.50;101758.84;4975542;28;20027;-78
2021/09/04 08:19:08;;;;;;;28.70;15.27;;;;;;;25.51;46.66;101761.66;4984179;28;20031;-71
2021/09/04 08:21:33;;;;;;;30.38;17.05;;;;;;;25.45;46.90;101760.41;4991494;28;20084;-71
2021/09/04 08:23:59;;;;;;;33.78;18.85;;;;;;;25.55;46.53;101762.50;4990842;28;20057;-72
2021/09/04 08:26:25;;;;;;;26.45;17.20;;;;;;;25.62;46.36;101764.53;4991435;28;20066;-73
2021/09/04 08:28:50;;;;;;;30.98;17.02;;;;;;;25.68;46.25;101762.94;4990905;28;20416;-73
2021/09/04 08:31:16;;;;;;;23.20;16.27;;;;;;;25.71;46.41;101765.81;4977085;28;20066;-74
2021/09/04 08:33:41;;;;;;;27.70;16.95;;;;;;;25.86;46.22;101768.66;4974914;28;20820;-76
2021/09/04 08:36:07;;;;;;;23.90;16.90;;;;;;;25.73;46.35;101771.00;4985529;28;20035;-72
2021/09/04 08:38:33;;;;;;;33.33;17.85;;;;;;;25.73;46.30;101771.81;4990929;28;20038;-74
2021/09/04 08:40:58;;;;;;;29.95;16.92;;;;;;;25.94;45.77;101767.50;4989903;28;20435;-83
2021/09/04 08:43:24;;;;;;;30.15;17.77;;;;;;;25.98;45.63;101771.09;4989363;28;20072;-80
2021/09/04 08:45:50;;;;;;;24.55;15.52;;;;;;;25.73;46.19;101771.00;4992776;28;20064;-92
2021/09/04 08:48:18;;;;;;;27.02;16.83;;;;;;;25.89;45.99;101767.88;4991646;28;20022;-92
2021/09/04 08:50:44;;;;;;;27.02;17.10;;;;;;;26.08;45.42;101766.75;4992222;28;20034;-88
2021/09/04 08:53:10;;;;;;;27.20;17.45;;;;;;;26.13;45.05;101772.75;4988311;28;20618;-90
2021/09/04 08:55:35;;;;;;;29.83;16.48;;;;;;;26.14;45.24;101765.16;4975223;28;20034;-81
2021/09/04 08:58:01;;;;;;;28.42;18.10;;;;;;;26.19;45.05;101776.78;4977865;28;20041;-84
2021/09/04 09:00:30;;;;;;;36.08;18.05;;;;;;;26.18;45.43;101780.00;4975193;28;20027;-80
2021/09/04 09:02:56;;;;;;;28.85;17.48;;;;;;;26.24;44.91;101784.03;4974486;28;20069;-83
2021/09/04 09:05:22;;;;;;;31.92;16.55;;;;;;;26.21;45.35;101779.19;4989971;28;20073;-85
2021/09/04 09:07:48;;;;;;;32.10;16.17;;;;;;;26.23;45.19;101782.41;4990407;28;20026;-84
2021/09/04 09:10:23;;;;;;;26.25;16.90;;;;;;;26.12;45.50;101781.56;4987177;28;20072;-84
2021/09/04 09:12:52;;;;;;;31.77;17.08;;;;;;;26.19;45.08;101778.78;4990241;28;20022;-84
2021/09/04 09:15:40;;;;;;;37.17;17.77;;;;;;;26.14;45.22;101779.97;4976306;28;20044;-80
2021/09/04 09:18:14;;;;;;;25.73;16.30;;;;;;;26.14;45.33;101781.97;4965201;28;20042;-80
2021/09/04 09:20:55;;;;;;;27.45;16.27;;;;;;;26.10;45.30;101781.16;4972996;28;20042;-80
2021/09/04 09:23:22;;;;;;;25.35;17.02;;;;;;;26.08;45.32;101786.38;4974837;28;20030;-85
2021/09/04 09:25:48;;;;;;;23.98;16.58;;;;;;;26.18;45.45;101774.38;4973684;28;20397;-79
2021/09/04 09:28:17;;;;;;;28.63;17.00;;;;;;;26.27;44.91;101777.63;4973654;28;20022;-83
2021/09/04 09:30:49;;;;;;;30.52;17.05;;;;;;;26.21;45.19;101773.59;4972920;28;20910;-82
2021/09/04 09:33:19;;;;;;;23.40;15.88;;;;;;;26.28;45.27;101779.22;4973284;28;20088;-80
2021/09/04 09:35:53;;;;;;;31.15;16.45;;;;;;;26.33;45.22;101776.03;4974480;28;20026;-80
2021/09/04 09:38:27;;;;;;;27.45;16.92;;;;;;;26.37;44.99;101776.81;4973520;28;20041;-80
2021/09/04 09:40:54;;;;;;;31.02;17.17;;;;;;;26.42;45.17;101768.06;4973211;28;20454;-81
2021/09/04 09:43:23;;;;;;;23.90;16.30;;;;;;;26.31;45.13;101766.44;4974116;28;20030;-80
2021/09/04 09:45:53;;;;;;;24.08;15.95;;;;;;;26.40;44.97;101767.69;4973991;28;20512;-79
2021/09/04 09:48:29;;;;;;;;;;;;;;;26.46;44.80;101766.09;4973884;28;20030;-79
2021/09/04 09:50:56;;;;;;;23.58;16.38;;;;;;;26.37;45.10;101762.81;4973259;28;20379;-80
2021/09/04 09:53:24;;;;;;;24.02;15.82;;;;;;;26.34;44.94;101771.22;4973215;28;20022;-83
2021/09/04 09:55:52;;;;;;;29.23;17.05;;;;;;;26.41;44.91;101766.47;4975576;28;20092;-80
2021/09/04 09:58:19;;;;;;;30.05;16.67;;;;;;;26.52;44.46;101767.28;4977022;28;20092;-80
2021/09/04 10:00:46;;;;;;;24.38;16.17;;;;;;;26.57;44.73;101768.09;4976008;28;20461;-84
2021/09/04 10:03:13;;;;;;;28.80;17.58;;;;;;;26.52;44.73;101770.09;4976602;28;20397;-85
2021/09/04 10:05:39;;;;;;;26.15;16.88;;;;;;;26.62;44.55;101770.53;4976371;28;20121;-82
2021/09/04 10:08:05;;;;;;;22.70;16.65;;;;;;;26.63;44.35;101772.13;4976809;28;20183;-84
2021/09/04 10:10:38;;;;;;;27.08;16.40;;;;;;;26.53;44.50;101771.72;4976846;28;20027;-84
2021/09/04 10:13:04;;;;;;;24.75;16.30;;;;;;;26.66;44.13;101776.91;4977670;28;20735;-84
2021/09/04 10:15:36;;;;;;;28.05;16.42;;;;;;;26.55;44.73;101776.91;4974499;28;20038;-83
2021/09/04 10:18:07;;;;;;;22.58;15.25;;;;;;;26.65;44.24;101769.72;4976454;28;20200;-80
2021/09/04 10:20:35;;;;;;;25.70;15.93;;;;;;;26.68;44.31;101764.13;4975050;28;20400;-81
2021/09/04 10:23:22;;;;;;;26.10;14.85;;;;;;;26.75;43.92;101757.69;4974947;28;20061;-81
2021/09/04 10:25:48;;;;;;;26.92;16.63;;;;;;;26.79;44.00;101747.28;4976960;28;20034;-79
2021/09/04 10:28:16;;;;;;;26.60;16.75;;;;;;;26.91;43.66;101746.91;5007796;28;20034;-81
2021/09/04 10:30:45;;;;;;;25.30;15.07;;;;;;;27.00;43.50;101744.50;4985528;28;20030;-82
2021/09/04 10:33:16;;;;;;;23.25;15.70;;;;;;;27.17;43.24;101734.47;4976842;28;20835;-82
2021/09/04 10:35:51;;;;;;;30.00;15.35;;;;;;;27.16;43.05;101738.50;4977328;28;20556;-85
2021/09/04 10:38:19;;;;;;;23.42;15.48;;;;;;;27.17;43.21;101739.28;4977293;28;20057;-85
2021/09/04 10:41:16;;;;;;;31.50;16.58;;;;;;;27.14;42.63;101724.09;4975726;28;20572;-84
2021/09/04 10:43:44;;;;;;;24.40;14.95;;;;;;;27.38;42.39;101730.84;4977763;28;20401;-84
2021/09/04 10:46:15;;;;;;;20.88;15.60;;;;;;;27.45;42.35;101735.63;4977026;28;20119;-79
2021/09/04 10:48:42;;;;;;;20.83;14.95;;;;;;;27.38;42.61;101722.41;4992820;28;20069;-88
2021/09/04 10:51:09;;;;;;;18.13;14.27;;;;;;;27.34;42.59;101738.44;4993423;28;20176;-79
2021/09/04 10:53:47;;;;;;;21.98;15.15;;;;;;;27.49;42.11;101728.00;4993168;28;20026;-78
2021/09/04 10:56:23;;;;;;;24.13;15.10;;;;;;;27.59;41.86;101738.41;4992818;28;20026;-78
2021/09/04 10:58:50;;;;;;;25.92;16.63;;;;;;;27.63;41.82;101728.75;4991882;28;20030;-79
2021/09/04 11:01:17;;;;;;;22.05;14.52;;;;;;;27.62;41.86;101720.72;4991542;28;20053;-79
2021/09/04 11:03:43;;;;;;;22.77;14.57;;;;;;;27.57;42.06;101730.38;4992729;28;20097;-88
2021/09/04 11:06:17;;;;;;;20.80;14.70;;;;;;;27.71;41.81;101731.56;4991486;28;20159;-88